sensor_id;sensor_type;location;lat;lon;timestamp;P1;durP1;ratioP1;P2;durP2;ratioP2
22752;SDS011;11543;43.144;24.684;2023-07-30T00:01:31;4.18;;;2.35;;
22752;SDS011;11543;43.144;24.684;2023-07-30T00:03:56;5.25;;;2.45;;
22752;SDS011;11543;43.144;24.684;2023-07-30T00:06:22;3.30;;;2.20;;
22752;SDS011;11543;43.144;24.684;2023-07-30T00:08:47;4.35;;;2.13;;
22752;SDS011;11543;43.144;24.684;2023-07-30T00:11:12;4.88;;;2.25;;
22752;SDS011;11543;43.144;24.684;2023-07-30T00:13:38;3.90;;;2.30;;
22752;SDS011;11543;43.144;24.684;2023-07-30T00:16:03;4.15;;;2.10;;
22752;SDS011;11543;43.144;24.684;2023-07-30T00:18:29;4.20;;;2.30;;
22752;SDS011;11543;43.144;24.684;2023-07-30T00:20:54;3.33;;;2.17;;
22752;SDS011;11543;43.144;24.684;2023-07-30T00:23:20;5.22;;;2.33;;
22752;SDS011;11543;43.144;24.684;2023-07-30T00:25:45;3.38;;;2.33;;
22752;SDS011;11543;43.144;24.684;2023-07-30T00:28:11;3.53;;;2.28;;
22752;SDS011;11543;43.144;24.684;2023-07-30T00:30:36;5.43;;;2.15;;
22752;SDS011;11543;43.144;24.684;2023-07-30T00:33:02;5.90;;;2.15;;
22752;SDS011;11543;43.144;24.684;2023-07-30T00:38:27;3.13;;;1.90;;
22752;SDS011;11543;43.144;24.684;2023-07-30T00:40:53;5.93;;;2.20;;
22752;SDS011;11543;43.144;24.684;2023-07-30T00:43:18;3.10;;;2.20;;
22752;SDS011;11543;43.144;24.684;2023-07-30T00:45:44;5.45;;;1.83;;
22752;SDS011;11543;43.144;24.684;2023-07-30T00:48:11;3.28;;;2.10;;
22752;SDS011;11543;43.144;24.684;2023-07-30T00:50:38;5.13;;;2.30;;
22752;SDS011;11543;43.144;24.684;2023-07-30T00:53:04;2.50;;;1.80;;
22752;SDS011;11543;43.144;24.684;2023-07-30T00:55:31;3.22;;;1.75;;
22752;SDS011;11543;43.144;24.684;2023-07-30T00:57:57;3.10;;;2.00;;
22752;SDS011;11543;43.144;24.684;2023-07-30T01:00:23;2.45;;;1.60;;
22752;SDS011;11543;43.144;24.684;2023-07-30T01:02:50;6.47;;;1.80;;
22752;SDS011;11543;43.144;24.684;2023-07-30T01:05:16;4.00;;;2.30;;
22752;SDS011;11543;43.144;24.684;2023-07-30T01:07:42;3.47;;;1.70;;
22752;SDS011;11543;43.144;24.684;2023-07-30T01:10:07;3.35;;;2.08;;
22752;SDS011;11543;43.144;24.684;2023-07-30T01:12:33;3.35;;;2.00;;
22752;SDS011;11543;43.144;24.684;2023-07-30T01:15:00;5.38;;;2.00;;
22752;SDS011;11543;43.144;24.684;2023-07-30T01:17:27;3.15;;;2.10;;
22752;SDS011;11543;43.144;24.684;2023-07-30T01:19:53;4.57;;;2.00;;
22752;SDS011;11543;43.144;24.684;2023-07-30T01:22:22;4.95;;;2.20;;
22752;SDS011;11543;43.144;24.684;2023-07-30T01:24:48;4.35;;;2.20;;
22752;SDS011;11543;43.144;24.684;2023-07-30T01:27:16;3.75;;;2.53;;
22752;SDS011;11543;43.144;24.684;2023-07-30T01:29:53;6.28;;;2.35;;
22752;SDS011;11543;43.144;24.684;2023-07-30T01:32:20;5.40;;;2.53;;
22752;SDS011;11543;43.144;24.684;2023-07-30T01:34:52;4.53;;;2.33;;
22752;SDS011;11543;43.144;24.684;2023-07-30T01:37:19;3.50;;;2.30;;
22752;SDS011;11543;43.144;24.684;2023-07-30T01:39:45;3.65;;;2.30;;
22752;SDS011;11543;43.144;24.684;2023-07-30T01:42:13;3.78;;;2.53;;
22752;SDS011;11543;43.144;24.684;2023-07-30T01:44:39;4.82;;;2.20;;
22752;SDS011;11543;43.144;24.684;2023-07-30T01:47:04;4.15;;;2.67;;
22752;SDS011;11543;43.144;24.684;2023-07-30T01:49:30;5.70;;;2.50;;
22752;SDS011;11543;43.144;24.684;2023-07-30T01:51:55;4.05;;;2.08;;
22752;SDS011;11543;43.144;24.684;2023-07-30T01:54:21;4.15;;;2.03;;
22752;SDS011;11543;43.144;24.684;2023-07-30T01:56:47;3.08;;;2.55;;
22752;SDS011;11543;43.144;24.684;2023-07-30T01:59:12;3.53;;;2.22;;
22752;SDS011;11543;43.144;24.684;2023-07-30T02:01:38;2.67;;;1.98;;
22752;SDS011;11543;43.144;24.684;2023-07-30T02:04:03;3.88;;;2.15;;
22752;SDS011;11543;43.144;24.684;2023-07-30T02:06:29;4.85;;;2.20;;
22752;SDS011;11543;43.144;24.684;2023-07-30T02:08:54;4.32;;;2.00;;
22752;SDS011;11543;43.144;24.684;2023-07-30T02:11:20;3.78;;;2.38;;
22752;SDS011;11543;43.144;24.684;2023-07-30T02:13:45;3.40;;;2.30;;
22752;SDS011;11543;43.144;24.684;2023-07-30T02:16:11;4.22;;;2.22;;
22752;SDS011;11543;43.144;24.684;2023-07-30T02:18:36;3.88;;;2.20;;
22752;SDS011;11543;43.144;24.684;2023-07-30T02:21:02;26.90;;;2.97;;
22752;SDS011;11543;43.144;24.684;2023-07-30T02:23:27;11.45;;;2.30;;
22752;SDS011;11543;43.144;24.684;2023-07-30T02:25:53;7.30;;;2.45;;
22752;SDS011;11543;43.144;24.684;2023-07-30T02:28:19;5.93;;;2.90;;
22752;SDS011;11543;43.144;24.684;2023-07-30T02:30:44;3.47;;;2.25;;
22752;SDS011;11543;43.144;24.684;2023-07-30T02:33:10;15.32;;;2.40;;
22752;SDS011;11543;43.144;24.684;2023-07-30T02:35:35;7.30;;;2.42;;
22752;SDS011;11543;43.144;24.684;2023-07-30T02:38:01;4.20;;;2.50;;
22752;SDS011;11543;43.144;24.684;2023-07-30T02:40:26;4.20;;;2.47;;
22752;SDS011;11543;43.144;24.684;2023-07-30T02:42:52;3.58;;;2.55;;
22752;SDS011;11543;43.144;24.684;2023-07-30T02:45:17;3.45;;;2.17;;
22752;SDS011;11543;43.144;24.684;2023-07-30T02:47:43;3.53;;;2.30;;
22752;SDS011;11543;43.144;24.684;2023-07-30T02:50:08;2.53;;;2.15;;
22752;SDS011;11543;43.144;24.684;2023-07-30T02:52:34;3.60;;;2.42;;
22752;SDS011;11543;43.144;24.684;2023-07-30T02:55:00;5.38;;;2.13;;
22752;SDS011;11543;43.144;24.684;2023-07-30T02:57:25;5.32;;;2.20;;
22752;SDS011;11543;43.144;24.684;2023-07-30T02:59:51;3.97;;;2.40;;
22752;SDS011;11543;43.144;24.684;2023-07-30T03:02:16;3.38;;;2.10;;
22752;SDS011;11543;43.144;24.684;2023-07-30T03:04:42;3.60;;;2.22;;
22752;SDS011;11543;43.144;24.684;2023-07-30T03:07:08;6.05;;;2.58;;
22752;SDS011;11543;43.144;24.684;2023-07-30T03:09:34;4.15;;;2.25;;
22752;SDS011;11543;43.144;24.684;2023-07-30T03:12:00;4.10;;;2.35;;
22752;SDS011;11543;43.144;24.684;2023-07-30T03:14:26;3.90;;;2.45;;
22752;SDS011;11543;43.144;24.684;2023-07-30T03:16:51;3.85;;;2.00;;
22752;SDS011;11543;43.144;24.684;2023-07-30T03:19:17;3.97;;;2.42;;
22752;SDS011;11543;43.144;24.684;2023-07-30T03:21:42;3.85;;;2.30;;
22752;SDS011;11543;43.144;24.684;2023-07-30T03:24:08;4.18;;;2.25;;
22752;SDS011;11543;43.144;24.684;2023-07-30T03:26:33;3.13;;;2.10;;
22752;SDS011;11543;43.144;24.684;2023-07-30T03:28:59;4.45;;;2.28;;
22752;SDS011;11543;43.144;24.684;2023-07-30T03:31:24;4.45;;;2.20;;
22752;SDS011;11543;43.144;24.684;2023-07-30T03:33:50;3.63;;;2.20;;
22752;SDS011;11543;43.144;24.684;2023-07-30T03:36:16;3.50;;;2.33;;
22752;SDS011;11543;43.144;24.684;2023-07-30T03:38:42;4.70;;;2.30;;
22752;SDS011;11543;43.144;24.684;2023-07-30T03:41:08;3.00;;;2.15;;
22752;SDS011;11543;43.144;24.684;2023-07-30T03:43:35;2.58;;;2.10;;
22752;SDS011;11543;43.144;24.684;2023-07-30T03:46:01;3.28;;;1.85;;
22752;SDS011;11543;43.144;24.684;2023-07-30T03:48:26;3.50;;;1.90;;
22752;SDS011;11543;43.144;24.684;2023-07-30T03:50:52;4.05;;;2.17;;
22752;SDS011;11543;43.144;24.684;2023-07-30T03:53:18;3.28;;;1.90;;
22752;SDS011;11543;43.144;24.684;2023-07-30T03:55:44;3.00;;;1.92;;
22752;SDS011;11543;43.144;24.684;2023-07-30T03:58:10;4.13;;;2.20;;
22752;SDS011;11543;43.144;24.684;2023-07-30T04:00:35;5.70;;;2.03;;
22752;SDS011;11543;43.144;24.684;2023-07-30T04:03:01;3.63;;;1.88;;
22752;SDS011;11543;43.144;24.684;2023-07-30T04:05:26;3.83;;;1.80;;
22752;SDS011;11543;43.144;24.684;2023-07-30T04:07:52;5.30;;;2.10;;
22752;SDS011;11543;43.144;24.684;2023-07-30T04:10:17;4.20;;;1.92;;
22752;SDS011;11543;43.144;24.684;2023-07-30T04:12:43;2.47;;;1.88;;
22752;SDS011;11543;43.144;24.684;2023-07-30T04:15:08;3.58;;;2.10;;
22752;SDS011;11543;43.144;24.684;2023-07-30T04:17:37;3.63;;;2.10;;
22752;SDS011;11543;43.144;24.684;2023-07-30T04:20:03;3.67;;;1.95;;
22752;SDS011;11543;43.144;24.684;2023-07-30T04:22:29;3.85;;;1.90;;
22752;SDS011;11543;43.144;24.684;2023-07-30T04:24:55;3.90;;;2.00;;
22752;SDS011;11543;43.144;24.684;2023-07-30T04:27:21;4.72;;;2.30;;
22752;SDS011;11543;43.144;24.684;2023-07-30T04:29:46;5.32;;;2.00;;
22752;SDS011;11543;43.144;24.684;2023-07-30T04:32:12;5.57;;;2.10;;
22752;SDS011;11543;43.144;24.684;2023-07-30T04:34:37;7.35;;;2.10;;
22752;SDS011;11543;43.144;24.684;2023-07-30T04:37:03;5.22;;;2.22;;
22752;SDS011;11543;43.144;24.684;2023-07-30T04:39:30;4.63;;;2.75;;
22752;SDS011;11543;43.144;24.684;2023-07-30T04:41:57;3.13;;;1.90;;
22752;SDS011;11543;43.144;24.684;2023-07-30T04:44:22;3.00;;;2.03;;
22752;SDS011;11543;43.144;24.684;2023-07-30T04:46:48;3.92;;;1.92;;
22752;SDS011;11543;43.144;24.684;2023-07-30T04:49:13;5.88;;;2.00;;
22752;SDS011;11543;43.144;24.684;2023-07-30T04:51:39;3.08;;;1.88;;
22752;SDS011;11543;43.144;24.684;2023-07-30T04:54:04;2.75;;;1.77;;
22752;SDS011;11543;43.144;24.684;2023-07-30T04:56:30;2.75;;;1.90;;
22752;SDS011;11543;43.144;24.684;2023-07-30T04:58:55;6.28;;;2.38;;
22752;SDS011;11543;43.144;24.684;2023-07-30T05:01:21;12.30;;;5.03;;
22752;SDS011;11543;43.144;24.684;2023-07-30T05:03:46;97.72;;;31.70;;
22752;SDS011;11543;43.144;24.684;2023-07-30T05:06:12;51.17;;;16.98;;
22752;SDS011;11543;43.144;24.684;2023-07-30T05:08:37;46.88;;;15.88;;
22752;SDS011;11543;43.144;24.684;2023-07-30T05:11:03;32.55;;;11.02;;
22752;SDS011;11543;43.144;24.684;2023-07-30T05:13:28;44.22;;;14.35;;
22752;SDS011;11543;43.144;24.684;2023-07-30T05:15:54;46.30;;;15.93;;
22752;SDS011;11543;43.144;24.684;2023-07-30T05:18:19;48.33;;;16.67;;
22752;SDS011;11543;43.144;24.684;2023-07-30T05:20:48;32.25;;;11.65;;
22752;SDS011;11543;43.144;24.684;2023-07-30T05:23:15;18.80;;;7.70;;
22752;SDS011;11543;43.144;24.684;2023-07-30T05:25:41;13.20;;;5.00;;
22752;SDS011;11543;43.144;24.684;2023-07-30T05:28:07;15.10;;;5.85;;
22752;SDS011;11543;43.144;24.684;2023-07-30T05:30:32;15.23;;;4.97;;
22752;SDS011;11543;43.144;24.684;2023-07-30T05:32:58;11.65;;;4.40;;
22752;SDS011;11543;43.144;24.684;2023-07-30T05:35:23;12.45;;;3.88;;
22752;SDS011;11543;43.144;24.684;2023-07-30T05:37:49;6.25;;;3.15;;
22752;SDS011;11543;43.144;24.684;2023-07-30T05:40:14;6.25;;;2.42;;
22752;SDS011;11543;43.144;24.684;2023-07-30T05:42:40;3.17;;;2.10;;
22752;SDS011;11543;43.144;24.684;2023-07-30T05:45:06;4.43;;;2.22;;
22752;SDS011;11543;43.144;24.684;2023-07-30T05:47:33;7.45;;;2.85;;
22752;SDS011;11543;43.144;24.684;2023-07-30T05:49:59;6.00;;;2.42;;
22752;SDS011;11543;43.144;24.684;2023-07-30T05:52:25;3.88;;;2.10;;
22752;SDS011;11543;43.144;24.684;2023-07-30T05:54:50;3.92;;;2.42;;
22752;SDS011;11543;43.144;24.684;2023-07-30T05:57:16;6.32;;;2.30;;
22752;SDS011;11543;43.144;24.684;2023-07-30T05:59:42;6.18;;;2.47;;
22752;SDS011;11543;43.144;24.684;2023-07-30T06:02:07;7.55;;;2.67;;
22752;SDS011;11543;43.144;24.684;2023-07-30T06:04:33;3.78;;;2.47;;
22752;SDS011;11543;43.144;24.684;2023-07-30T06:07:01;5.05;;;2.45;;
22752;SDS011;11543;43.144;24.684;2023-07-30T06:09:30;3.50;;;2.37;;
22752;SDS011;11543;43.144;24.684;2023-07-30T06:11:56;6.63;;;2.78;;
22752;SDS011;11543;43.144;24.684;2023-07-30T06:14:25;4.35;;;2.67;;
22752;SDS011;11543;43.144;24.684;2023-07-30T06:16:52;7.72;;;2.75;;
22752;SDS011;11543;43.144;24.684;2023-07-30T06:19:18;3.58;;;2.38;;
22752;SDS011;11543;43.144;24.684;2023-07-30T06:21:44;8.82;;;2.40;;
22752;SDS011;11543;43.144;24.684;2023-07-30T06:24:10;3.15;;;2.33;;
22752;SDS011;11543;43.144;24.684;2023-07-30T06:26:36;5.25;;;2.28;;
22752;SDS011;11543;43.144;24.684;2023-07-30T06:29:01;4.38;;;2.40;;
22752;SDS011;11543;43.144;24.684;2023-07-30T06:31:27;3.08;;;2.05;;
22752;SDS011;11543;43.144;24.684;2023-07-30T06:33:52;3.28;;;2.40;;
22752;SDS011;11543;43.144;24.684;2023-07-30T06:36:18;4.55;;;2.15;;
22752;SDS011;11543;43.144;24.684;2023-07-30T06:38:44;3.90;;;1.90;;
22752;SDS011;11543;43.144;24.684;2023-07-30T06:41:09;4.43;;;2.30;;
22752;SDS011;11543;43.144;24.684;2023-07-30T06:43:35;2.70;;;1.83;;
22752;SDS011;11543;43.144;24.684;2023-07-30T06:46:00;3.85;;;2.00;;
22752;SDS011;11543;43.144;24.684;2023-07-30T06:48:26;3.00;;;1.73;;
22752;SDS011;11543;43.144;24.684;2023-07-30T06:50:51;4.47;;;1.80;;
22752;SDS011;11543;43.144;24.684;2023-07-30T06:53:17;2.65;;;1.90;;
22752;SDS011;11543;43.144;24.684;2023-07-30T06:55:42;2.88;;;2.05;;
22752;SDS011;11543;43.144;24.684;2023-07-30T06:58:08;2.60;;;1.88;;
22752;SDS011;11543;43.144;24.684;2023-07-30T07:00:33;3.25;;;1.85;;
22752;SDS011;11543;43.144;24.684;2023-07-30T07:02:59;7.70;;;1.90;;
22752;SDS011;11543;43.144;24.684;2023-07-30T07:05:25;5.63;;;1.95;;
22752;SDS011;11543;43.144;24.684;2023-07-30T07:07:50;4.53;;;1.60;;
22752;SDS011;11543;43.144;24.684;2023-07-30T07:10:16;3.20;;;1.67;;
22752;SDS011;11543;43.144;24.684;2023-07-30T07:12:41;5.57;;;2.00;;
22752;SDS011;11543;43.144;24.684;2023-07-30T07:15:07;3.08;;;1.73;;
22752;SDS011;11543;43.144;24.684;2023-07-30T07:17:33;4.15;;;1.98;;
22752;SDS011;11543;43.144;24.684;2023-07-30T07:19:58;6.10;;;1.70;;
22752;SDS011;11543;43.144;24.684;2023-07-30T07:22:24;2.75;;;1.70;;
22752;SDS011;11543;43.144;24.684;2023-07-30T07:24:50;4.43;;;1.90;;
22752;SDS011;11543;43.144;24.684;2023-07-30T07:27:17;3.42;;;1.70;;
22752;SDS011;11543;43.144;24.684;2023-07-30T07:29:43;2.90;;;1.80;;
22752;SDS011;11543;43.144;24.684;2023-07-30T07:32:09;4.55;;;2.00;;
22752;SDS011;11543;43.144;24.684;2023-07-30T07:34:35;2.72;;;1.63;;
22752;SDS011;11543;43.144;24.684;2023-07-30T07:37:01;2.47;;;1.60;;
22752;SDS011;11543;43.144;24.684;2023-07-30T07:39:27;3.67;;;1.90;;
22752;SDS011;11543;43.144;24.684;2023-07-30T07:41:52;2.65;;;1.60;;
22752;SDS011;11543;43.144;24.684;2023-07-30T07:44:18;3.08;;;1.55;;
22752;SDS011;11543;43.144;24.684;2023-07-30T07:46:44;3.42;;;1.48;;
22752;SDS011;11543;43.144;24.684;2023-07-30T07:49:09;2.70;;;1.63;;
22752;SDS011;11543;43.144;24.684;2023-07-30T07:51:35;2.33;;;1.50;;
22752;SDS011;11543;43.144;24.684;2023-07-30T07:54:01;2.47;;;1.42;;
22752;SDS011;11543;43.144;24.684;2023-07-30T07:56:26;2.05;;;1.50;;
22752;SDS011;11543;43.144;24.684;2023-07-30T07:58:52;2.70;;;1.55;;
22752;SDS011;11543;43.144;24.684;2023-07-30T08:01:17;3.38;;;1.60;;
22752;SDS011;11543;43.144;24.684;2023-07-30T08:03:43;1.67;;;1.30;;
22752;SDS011;11543;43.144;24.684;2023-07-30T08:06:09;3.15;;;1.60;;
22752;SDS011;11543;43.144;24.684;2023-07-30T08:08:34;4.85;;;1.80;;
22752;SDS011;11543;43.144;24.684;2023-07-30T08:11:04;4.82;;;1.50;;
22752;SDS011;11543;43.144;24.684;2023-07-30T08:13:32;3.30;;;1.60;;
22752;SDS011;11543;43.144;24.684;2023-07-30T08:15:58;4.55;;;1.70;;
22752;SDS011;11543;43.144;24.684;2023-07-30T08:18:24;2.92;;;1.80;;
22752;SDS011;11543;43.144;24.684;2023-07-30T08:20:50;3.30;;;1.30;;
22752;SDS011;11543;43.144;24.684;2023-07-30T08:23:15;1.60;;;1.33;;
22752;SDS011;11543;43.144;24.684;2023-07-30T08:25:41;2.63;;;1.50;;
22752;SDS011;11543;43.144;24.684;2023-07-30T08:28:06;3.88;;;1.30;;
22752;SDS011;11543;43.144;24.684;2023-07-30T08:30:32;3.42;;;1.50;;
22752;SDS011;11543;43.144;24.684;2023-07-30T08:32:58;4.45;;;1.50;;
22752;SDS011;11543;43.144;24.684;2023-07-30T08:35:25;4.10;;;1.50;;
22752;SDS011;11543;43.144;24.684;2023-07-30T08:37:52;2.40;;;1.70;;
22752;SDS011;11543;43.144;24.684;2023-07-30T08:40:17;2.00;;;1.50;;
22752;SDS011;11543;43.144;24.684;2023-07-30T08:42:43;2.60;;;1.50;;
22752;SDS011;11543;43.144;24.684;2023-07-30T08:45:09;2.33;;;1.42;;
22752;SDS011;11543;43.144;24.684;2023-07-30T08:47:35;4.05;;;1.50;;
22752;SDS011;11543;43.144;24.684;2023-07-30T08:50:04;2.35;;;1.50;;
22752;SDS011;11543;43.144;24.684;2023-07-30T08:52:30;2.80;;;1.40;;
22752;SDS011;11543;43.144;24.684;2023-07-30T08:54:57;3.50;;;1.55;;
22752;SDS011;11543;43.144;24.684;2023-07-30T08:57:23;3.08;;;1.50;;
22752;SDS011;11543;43.144;24.684;2023-07-30T08:59:52;4.50;;;1.48;;
22752;SDS011;11543;43.144;24.684;2023-07-30T09:02:26;3.20;;;1.58;;
22752;SDS011;11543;43.144;24.684;2023-07-30T09:04:58;2.53;;;1.42;;
22752;SDS011;11543;43.144;24.684;2023-07-30T09:07:26;2.78;;;1.58;;
22752;SDS011;11543;43.144;24.684;2023-07-30T09:09:52;3.63;;;1.63;;
22752;SDS011;11543;43.144;24.684;2023-07-30T09:12:17;4.32;;;1.60;;
22752;SDS011;11543;43.144;24.684;2023-07-30T09:14:46;2.33;;;1.35;;
22752;SDS011;11543;43.144;24.684;2023-07-30T09:17:19;1.48;;;1.30;;
22752;SDS011;11543;43.144;24.684;2023-07-30T09:19:44;2.22;;;1.48;;
22752;SDS011;11543;43.144;24.684;2023-07-30T09:22:19;3.50;;;1.58;;
22752;SDS011;11543;43.144;24.684;2023-07-30T09:25:00;2.38;;;1.80;;
22752;SDS011;11543;43.144;24.684;2023-07-30T09:27:28;1.73;;;1.45;;
22752;SDS011;11543;43.144;24.684;2023-07-30T09:29:57;3.00;;;1.77;;
22752;SDS011;11543;43.144;24.684;2023-07-30T09:32:25;4.55;;;1.80;;
22752;SDS011;11543;43.144;24.684;2023-07-30T09:34:52;4.68;;;2.58;;
22752;SDS011;11543;43.144;24.684;2023-07-30T09:37:18;7.13;;;2.03;;
22752;SDS011;11543;43.144;24.684;2023-07-30T09:39:44;4.55;;;2.60;;
22752;SDS011;11543;43.144;24.684;2023-07-30T09:42:13;7.05;;;3.78;;
22752;SDS011;11543;43.144;24.684;2023-07-30T09:44:40;9.75;;;4.20;;
22752;SDS011;11543;43.144;24.684;2023-07-30T09:47:09;5.80;;;3.20;;
22752;SDS011;11543;43.144;24.684;2023-07-30T09:49:36;5.03;;;2.50;;
22752;SDS011;11543;43.144;24.684;2023-07-30T09:52:03;4.10;;;2.10;;
22752;SDS011;11543;43.144;24.684;2023-07-30T09:54:31;7.15;;;2.08;;
22752;SDS011;11543;43.144;24.684;2023-07-30T09:56:57;5.32;;;2.30;;
22752;SDS011;11543;43.144;24.684;2023-07-30T09:59:23;5.47;;;2.03;;
22752;SDS011;11543;43.144;24.684;2023-07-30T10:01:49;2.60;;;1.80;;
22752;SDS011;11543;43.144;24.684;2023-07-30T10:04:17;2.78;;;1.92;;
22752;SDS011;11543;43.144;24.684;2023-07-30T10:06:52;2.88;;;1.80;;
22752;SDS011;11543;43.144;24.684;2023-07-30T10:09:37;2.72;;;2.08;;
22752;SDS011;11543;43.144;24.684;2023-07-30T10:12:10;2.42;;;1.80;;
22752;SDS011;11543;43.144;24.684;2023-07-30T10:14:42;3.92;;;1.85;;
22752;SDS011;11543;43.144;24.684;2023-07-30T10:17:12;4.50;;;1.90;;
22752;SDS011;11543;43.144;24.684;2023-07-30T10:19:37;3.78;;;1.90;;
22752;SDS011;11543;43.144;24.684;2023-07-30T10:24:38;4.13;;;2.08;;
22752;SDS011;11543;43.144;24.684;2023-07-30T10:27:23;2.80;;;2.25;;
22752;SDS011;11543;43.144;24.684;2023-07-30T10:30:11;3.33;;;2.42;;
22752;SDS011;11543;43.144;24.684;2023-07-30T10:35:54;2.30;;;2.10;;
22752;SDS011;11543;43.144;24.684;2023-07-30T10:38:29;2.90;;;2.10;;
22752;SDS011;11543;43.144;24.684;2023-07-30T10:43:50;2.90;;;2.22;;
22752;SDS011;11543;43.144;24.684;2023-07-30T10:46:17;3.50;;;2.30;;
22752;SDS011;11543;43.144;24.684;2023-07-30T10:48:45;2.63;;;2.40;;
22752;SDS011;11543;43.144;24.684;2023-07-30T10:51:12;3.05;;;2.38;;
22752;SDS011;11543;43.144;24.684;2023-07-30T10:53:42;2.13;;;1.83;;
22752;SDS011;11543;43.144;24.684;2023-07-30T10:56:11;2.65;;;1.90;;
22752;SDS011;11543;43.144;24.684;2023-07-30T10:58:38;2.90;;;2.08;;
22752;SDS011;11543;43.144;24.684;2023-07-30T11:01:04;2.53;;;1.67;;
22752;SDS011;11543;43.144;24.684;2023-07-30T11:03:32;2.78;;;1.77;;
22752;SDS011;11543;43.144;24.684;2023-07-30T11:05:58;2.47;;;2.03;;
22752;SDS011;11543;43.144;24.684;2023-07-30T11:08:40;2.20;;;2.00;;
22752;SDS011;11543;43.144;24.684;2023-07-30T11:11:09;2.30;;;1.83;;
22752;SDS011;11543;43.144;24.684;2023-07-30T11:13:45;2.90;;;2.00;;
22752;SDS011;11543;43.144;24.684;2023-07-30T11:16:12;2.88;;;1.77;;
22752;SDS011;11543;43.144;24.684;2023-07-30T11:18:40;5.65;;;1.60;;
22752;SDS011;11543;43.144;24.684;2023-07-30T11:21:11;2.05;;;1.50;;
22752;SDS011;11543;43.144;24.684;2023-07-30T11:23:39;2.22;;;1.60;;
22752;SDS011;11543;43.144;24.684;2023-07-30T11:26:07;2.33;;;1.58;;
22752;SDS011;11543;43.144;24.684;2023-07-30T11:28:38;2.17;;;1.90;;
22752;SDS011;11543;43.144;24.684;2023-07-30T11:34:41;2.83;;;1.52;;
22752;SDS011;11543;43.144;24.684;2023-07-30T11:37:10;1.70;;;1.50;;
22752;SDS011;11543;43.144;24.684;2023-07-30T11:39:37;2.25;;;1.50;;
22752;SDS011;11543;43.144;24.684;2023-07-30T11:42:02;2.88;;;1.50;;
22752;SDS011;11543;43.144;24.684;2023-07-30T11:44:37;1.88;;;1.60;;
22752;SDS011;11543;43.144;24.684;2023-07-30T11:47:04;2.40;;;1.60;;
22752;SDS011;11543;43.144;24.684;2023-07-30T11:49:33;3.28;;;1.70;;
22752;SDS011;11543;43.144;24.684;2023-07-30T11:52:08;3.78;;;1.60;;
22752;SDS011;11543;43.144;24.684;2023-07-30T11:54:35;2.13;;;1.50;;
22752;SDS011;11543;43.144;24.684;2023-07-30T11:57:01;2.75;;;1.60;;
22752;SDS011;11543;43.144;24.684;2023-07-30T11:59:35;2.72;;;1.70;;
22752;SDS011;11543;43.144;24.684;2023-07-30T12:02:16;3.45;;;2.08;;
22752;SDS011;11543;43.144;24.684;2023-07-30T12:04:43;2.72;;;1.63;;
22752;SDS011;11543;43.144;24.684;2023-07-30T12:07:10;2.70;;;1.80;;
22752;SDS011;11543;43.144;24.684;2023-07-30T12:09:46;2.47;;;2.00;;
22752;SDS011;11543;43.144;24.684;2023-07-30T12:12:12;2.95;;;1.85;;
22752;SDS011;11543;43.144;24.684;2023-07-30T12:17:15;2.75;;;1.80;;
22752;SDS011;11543;43.144;24.684;2023-07-30T12:19:41;1.90;;;1.70;;
22752;SDS011;11543;43.144;24.684;2023-07-30T12:22:09;1.88;;;1.67;;
22752;SDS011;11543;43.144;24.684;2023-07-30T12:24:35;3.20;;;1.95;;
22752;SDS011;11543;43.144;24.684;2023-07-30T12:27:06;2.78;;;2.10;;
22752;SDS011;11543;43.144;24.684;2023-07-30T12:29:39;2.00;;;1.50;;
22752;SDS011;11543;43.144;24.684;2023-07-30T12:32:05;1.80;;;1.58;;
22752;SDS011;11543;43.144;24.684;2023-07-30T12:34:31;2.15;;;1.60;;
22752;SDS011;11543;43.144;24.684;2023-07-30T12:36:57;2.58;;;1.70;;
22752;SDS011;11543;43.144;24.684;2023-07-30T12:39:28;1.92;;;1.52;;
22752;SDS011;11543;43.144;24.684;2023-07-30T12:41:53;3.28;;;1.55;;
22752;SDS011;11543;43.144;24.684;2023-07-30T12:44:19;3.25;;;1.58;;
22752;SDS011;11543;43.144;24.684;2023-07-30T12:46:45;2.28;;;1.75;;
22752;SDS011;11543;43.144;24.684;2023-07-30T12:49:10;2.97;;;1.80;;
22752;SDS011;11543;43.144;24.684;2023-07-30T12:51:39;4.35;;;1.83;;
22752;SDS011;11543;43.144;24.684;2023-07-30T12:54:09;3.38;;;2.10;;
22752;SDS011;11543;43.144;24.684;2023-07-30T12:56:41;2.22;;;1.70;;
22752;SDS011;11543;43.144;24.684;2023-07-30T13:02:34;2.30;;;1.80;;
22752;SDS011;11543;43.144;24.684;2023-07-30T13:05:04;1.90;;;1.70;;
22752;SDS011;11543;43.144;24.684;2023-07-30T13:07:29;2.67;;;1.83;;
22752;SDS011;11543;43.144;24.684;2023-07-30T13:10:08;2.13;;;1.50;;
22752;SDS011;11543;43.144;24.684;2023-07-30T13:12:36;3.40;;;1.95;;
22752;SDS011;11543;43.144;24.684;2023-07-30T13:15:02;2.92;;;1.73;;
22752;SDS011;11543;43.144;24.684;2023-07-30T13:17:31;3.03;;;1.95;;
22752;SDS011;11543;43.144;24.684;2023-07-30T13:19:58;2.72;;;1.80;;
22752;SDS011;11543;43.144;24.684;2023-07-30T13:22:24;2.28;;;1.60;;
22752;SDS011;11543;43.144;24.684;2023-07-30T13:24:54;2.08;;;1.60;;
22752;SDS011;11543;43.144;24.684;2023-07-30T13:27:20;2.05;;;1.67;;
22752;SDS011;11543;43.144;24.684;2023-07-30T13:29:47;2.47;;;1.70;;
22752;SDS011;11543;43.144;24.684;2023-07-30T13:32:13;4.38;;;1.85;;
22752;SDS011;11543;43.144;24.684;2023-07-30T13:34:39;3.30;;;1.83;;
22752;SDS011;11543;43.144;24.684;2023-07-30T13:37:07;3.05;;;1.80;;
22752;SDS011;11543;43.144;24.684;2023-07-30T13:39:40;2.97;;;1.90;;
22752;SDS011;11543;43.144;24.684;2023-07-30T13:42:06;2.60;;;1.90;;
22752;SDS011;11543;43.144;24.684;2023-07-30T13:44:33;2.10;;;1.70;;
22752;SDS011;11543;43.144;24.684;2023-07-30T13:46:58;3.55;;;1.90;;
22752;SDS011;11543;43.144;24.684;2023-07-30T13:49:24;3.33;;;1.70;;
22752;SDS011;11543;43.144;24.684;2023-07-30T13:51:49;3.10;;;1.55;;
22752;SDS011;11543;43.144;24.684;2023-07-30T13:54:15;3.25;;;1.75;;
22752;SDS011;11543;43.144;24.684;2023-07-30T13:56:40;1.80;;;1.60;;
22752;SDS011;11543;43.144;24.684;2023-07-30T13:59:06;1.77;;;1.60;;
22752;SDS011;11543;43.144;24.684;2023-07-30T14:01:31;2.03;;;1.60;;
22752;SDS011;11543;43.144;24.684;2023-07-30T14:03:57;1.90;;;1.60;;
22752;SDS011;11543;43.144;24.684;2023-07-30T14:06:22;4.40;;;1.80;;
22752;SDS011;11543;43.144;24.684;2023-07-30T14:08:48;4.30;;;1.90;;
22752;SDS011;11543;43.144;24.684;2023-07-30T14:11:14;3.67;;;1.60;;
22752;SDS011;11543;43.144;24.684;2023-07-30T14:13:39;4.00;;;1.80;;
22752;SDS011;11543;43.144;24.684;2023-07-30T14:16:07;4.00;;;1.95;;
22752;SDS011;11543;43.144;24.684;2023-07-30T14:18:33;2.53;;;2.00;;
22752;SDS011;11543;43.144;24.684;2023-07-30T14:20:59;2.58;;;2.00;;
22752;SDS011;11543;43.144;24.684;2023-07-30T14:23:24;2.92;;;2.22;;
22752;SDS011;11543;43.144;24.684;2023-07-30T14:25:50;1.98;;;1.73;;
22752;SDS011;11543;43.144;24.684;2023-07-30T14:28:15;3.55;;;2.13;;
22752;SDS011;11543;43.144;24.684;2023-07-30T14:30:41;2.50;;;2.00;;
22752;SDS011;11543;43.144;24.684;2023-07-30T14:33:12;4.13;;;2.08;;
22752;SDS011;11543;43.144;24.684;2023-07-30T14:35:38;2.80;;;1.83;;
22752;SDS011;11543;43.144;24.684;2023-07-30T14:38:04;2.45;;;1.90;;
22752;SDS011;11543;43.144;24.684;2023-07-30T14:40:30;4.90;;;2.10;;
22752;SDS011;11543;43.144;24.684;2023-07-30T14:42:56;2.30;;;1.92;;
22752;SDS011;11543;43.144;24.684;2023-07-30T14:45:21;3.38;;;1.90;;
22752;SDS011;11543;43.144;24.684;2023-07-30T14:47:47;3.10;;;2.13;;
22752;SDS011;11543;43.144;24.684;2023-07-30T14:50:13;4.57;;;1.98;;
22752;SDS011;11543;43.144;24.684;2023-07-30T14:52:38;3.20;;;2.00;;